sensor_id;sensor_type;location;lat;lon;timestamp;P1;durP1;ratioP1;P2;durP2;ratioP2
48588;SDS011;34369;51.174;6.738;2023-04-15T00:02:22;36.93;;;34.53;;
48588;SDS011;34369;51.174;6.738;2023-04-15T00:04:54;37.13;;;34.83;;
48588;SDS011;34369;51.174;6.738;2023-04-15T00:07:26;37.40;;;35.10;;
48588;SDS011;34369;51.174;6.738;2023-04-15T00:10:00;35.57;;;33.17;;
48588;SDS011;34369;51.174;6.738;2023-04-15T00:12:33;38.40;;;35.90;;
48588;SDS011;34369;51.174;6.738;2023-04-15T00:15:06;36.63;;;34.33;;
48588;SDS011;34369;51.174;6.738;2023-04-15T00:17:41;36.90;;;34.60;;
48588;SDS011;34369;51.174;6.738;2023-04-15T00:20:14;36.90;;;34.47;;
48588;SDS011;34369;51.174;6.738;2023-04-15T00:22:46;37.13;;;34.73;;
48588;SDS011;34369;51.174;6.738;2023-04-15T00:25:22;38.40;;;35.67;;
48588;SDS011;34369;51.174;6.738;2023-04-15T00:27:54;37.27;;;34.87;;
48588;SDS011;34369;51.174;6.738;2023-04-15T00:30:26;38.30;;;35.90;;
48588;SDS011;34369;51.174;6.738;2023-04-15T00:32:59;37.57;;;35.07;;
48588;SDS011;34369;51.174;6.738;2023-04-15T00:35:47;38.27;;;35.73;;
48588;SDS011;34369;51.174;6.738;2023-04-15T00:38:34;37.30;;;34.80;;
48588;SDS011;34369;51.174;6.738;2023-04-15T00:41:09;39.63;;;36.83;;
48588;SDS011;34369;51.174;6.738;2023-04-15T00:43:42;39.03;;;36.43;;
48588;SDS011;34369;51.174;6.738;2023-04-15T00:46:14;40.03;;;37.50;;
48588;SDS011;34369;51.174;6.738;2023-04-15T00:48:49;37.33;;;34.93;;
48588;SDS011;34369;51.174;6.738;2023-04-15T00:51:22;40.63;;;38.03;;
48588;SDS011;34369;51.174;6.738;2023-04-15T00:53:55;37.57;;;35.27;;
48588;SDS011;34369;51.174;6.738;2023-04-15T00:56:30;36.73;;;34.43;;
48588;SDS011;34369;51.174;6.738;2023-04-15T00:59:13;36.13;;;33.80;;
48588;SDS011;34369;51.174;6.738;2023-04-15T01:01:45;38.60;;;36.20;;
48588;SDS011;34369;51.174;6.738;2023-04-15T01:04:35;38.77;;;36.27;;
48588;SDS011;34369;51.174;6.738;2023-04-15T01:07:08;39.37;;;36.87;;
48588;SDS011;34369;51.174;6.738;2023-04-15T01:10:05;37.73;;;35.33;;
48588;SDS011;34369;51.174;6.738;2023-04-15T01:27:16;39.67;;;37.07;;
48588;SDS011;34369;51.174;6.738;2023-04-15T01:29:49;39.40;;;36.70;;
48588;SDS011;34369;51.174;6.738;2023-04-15T01:33:10;39.03;;;36.55;;
48588;SDS011;34369;51.174;6.738;2023-04-15T01:36:47;41.30;;;38.50;;
48588;SDS011;34369;51.174;6.738;2023-04-15T01:57:07;40.73;;;38.03;;
48588;SDS011;34369;51.174;6.738;2023-04-15T02:00:33;41.53;;;38.60;;
48588;SDS011;34369;51.174;6.738;2023-04-15T02:03:19;43.60;;;40.80;;
48588;SDS011;34369;51.174;6.738;2023-04-15T03:17:08;39.00;;;36.30;;
48588;SDS011;34369;51.174;6.738;2023-04-15T03:20:22;37.80;;;35.40;;
48588;SDS011;34369;51.174;6.738;2023-04-15T03:22:56;40.73;;;37.97;;
48588;SDS011;34369;51.174;6.738;2023-04-15T03:26:00;41.80;;;39.20;;
48588;SDS011;34369;51.174;6.738;2023-04-15T03:28:36;43.05;;;40.55;;
48588;SDS011;34369;51.174;6.738;2023-04-15T03:31:12;39.97;;;37.28;;
48588;SDS011;34369;51.174;6.738;2023-04-15T03:33:46;41.40;;;38.90;;
48588;SDS011;34369;51.174;6.738;2023-04-15T03:36:20;38.43;;;35.93;;
48588;SDS011;34369;51.174;6.738;2023-04-15T03:38:56;42.22;;;39.38;;
48588;SDS011;34369;51.174;6.738;2023-04-15T03:41:33;42.63;;;39.87;;
48588;SDS011;34369;51.174;6.738;2023-04-15T03:44:09;40.83;;;37.90;;
48588;SDS011;34369;51.174;6.738;2023-04-15T03:46:46;42.50;;;39.80;;
48588;SDS011;34369;51.174;6.738;2023-04-15T03:49:24;40.60;;;37.90;;
48588;SDS011;34369;51.174;6.738;2023-04-15T03:51:59;41.83;;;39.30;;
48588;SDS011;34369;51.174;6.738;2023-04-15T03:54:35;41.40;;;38.80;;
48588;SDS011;34369;51.174;6.738;2023-04-15T03:57:09;39.40;;;36.70;;
48588;SDS011;34369;51.174;6.738;2023-04-15T03:59:41;41.83;;;39.13;;
48588;SDS011;34369;51.174;6.738;2023-04-15T04:02:13;41.27;;;38.53;;
48588;SDS011;34369;51.174;6.738;2023-04-15T04:04:47;40.73;;;38.10;;
48588;SDS011;34369;51.174;6.738;2023-04-15T04:07:22;41.10;;;38.37;;
48588;SDS011;34369;51.174;6.738;2023-04-15T04:09:57;43.03;;;40.20;;
48588;SDS011;34369;51.174;6.738;2023-04-15T05:11:10;42.73;;;39.93;;
48588;SDS011;34369;51.174;6.738;2023-04-15T05:19:08;43.00;;;39.60;;
48588;SDS011;34369;51.174;6.738;2023-04-15T05:42:11;38.60;;;35.83;;
48588;SDS011;34369;51.174;6.738;2023-04-15T05:46:13;40.00;;;37.33;;
48588;SDS011;34369;51.174;6.738;2023-04-15T05:50:18;38.97;;;36.27;;
48588;SDS011;34369;51.174;6.738;2023-04-15T06:08:40;40.97;;;38.00;;
48588;SDS011;34369;51.174;6.738;2023-04-15T06:11:45;43.00;;;39.97;;
48588;SDS011;34369;51.174;6.738;2023-04-15T06:14:59;41.47;;;38.57;;
48588;SDS011;34369;51.174;6.738;2023-04-15T06:32:54;40.77;;;37.87;;
48588;SDS011;34369;51.174;6.738;2023-04-15T06:35:46;42.03;;;38.87;;
48588;SDS011;34369;51.174;6.738;2023-04-15T06:38:30;41.20;;;38.40;;
48588;SDS011;34369;51.174;6.738;2023-04-15T06:47:50;39.93;;;37.23;;
48588;SDS011;34369;51.174;6.738;2023-04-15T06:50:22;40.20;;;37.50;;
48588;SDS011;34369;51.174;6.738;2023-04-15T06:56:49;39.50;;;36.77;;
48588;SDS011;34369;51.174;6.738;2023-04-15T06:59:22;38.87;;;36.17;;
48588;SDS011;34369;51.174;6.738;2023-04-15T07:01:57;40.60;;;37.83;;
48588;SDS011;34369;51.174;6.738;2023-04-15T07:04:29;39.77;;;37.07;;
48588;SDS011;34369;51.174;6.738;2023-04-15T07:07:02;37.90;;;35.17;;
48588;SDS011;34369;51.174;6.738;2023-04-15T07:09:39;38.77;;;36.07;;
48588;SDS011;34369;51.174;6.738;2023-04-15T07:12:12;39.07;;;36.30;;
48588;SDS011;34369;51.174;6.738;2023-04-15T07:25:48;36.13;;;33.58;;
48588;SDS011;34369;51.174;6.738;2023-04-15T07:29:08;36.85;;;34.05;;
48588;SDS011;34369;51.174;6.738;2023-04-15T07:31:52;36.17;;;33.05;;
48588;SDS011;34369;51.174;6.738;2023-04-15T07:37:48;34.97;;;32.40;;
48588;SDS011;34369;51.174;6.738;2023-04-15T07:40:21;34.20;;;31.90;;
48588;SDS011;34369;51.174;6.738;2023-04-15T07:42:53;32.92;;;30.63;;
48588;SDS011;34369;51.174;6.738;2023-04-15T07:45:29;31.98;;;29.77;;
48588;SDS011;34369;51.174;6.738;2023-04-15T07:48:06;31.23;;;29.15;;
48588;SDS011;34369;51.174;6.738;2023-04-15T07:50:52;30.95;;;28.73;;
48588;SDS011;34369;51.174;6.738;2023-04-15T07:56:23;29.65;;;27.63;;
48588;SDS011;34369;51.174;6.738;2023-04-15T07:58:55;29.52;;;27.52;;
48588;SDS011;34369;51.174;6.738;2023-04-15T08:01:29;28.88;;;26.88;;
48588;SDS011;34369;51.174;6.738;2023-04-15T08:04:03;29.27;;;27.20;;
48588;SDS011;34369;51.174;6.738;2023-04-15T08:50:49;26.67;;;24.70;;
48588;SDS011;34369;51.174;6.738;2023-04-15T08:54:04;25.95;;;24.15;;
48588;SDS011;34369;51.174;6.738;2023-04-15T08:57:18;25.63;;;23.83;;
48588;SDS011;34369;51.174;6.738;2023-04-15T09:10:25;25.95;;;24.05;;
48588;SDS011;34369;51.174;6.738;2023-04-15T09:12:59;25.52;;;23.73;;
48588;SDS011;34369;51.174;6.738;2023-04-15T09:15:36;26.40;;;24.48;;
48588;SDS011;34369;51.174;6.738;2023-04-15T09:18:10;26.15;;;24.25;;
48588;SDS011;34369;51.174;6.738;2023-04-15T09:20:46;26.92;;;25.02;;
48588;SDS011;34369;51.174;6.738;2023-04-15T09:23:20;26.75;;;24.83;;
48588;SDS011;34369;51.174;6.738;2023-04-15T09:26:06;26.33;;;24.42;;
48588;SDS011;34369;51.174;6.738;2023-04-15T09:29:50;26.77;;;24.95;;
48588;SDS011;34369;51.174;6.738;2023-04-15T09:32:56;26.23;;;24.35;;
48588;SDS011;34369;51.174;6.738;2023-04-15T09:35:31;27.08;;;25.25;;
48588;SDS011;34369;51.174;6.738;2023-04-15T09:38:08;26.70;;;24.90;;
48588;SDS011;34369;51.174;6.738;2023-04-15T09:40:41;26.13;;;24.40;;
48588;SDS011;34369;51.174;6.738;2023-04-15T09:43:14;26.70;;;24.80;;
48588;SDS011;34369;51.174;6.738;2023-04-15T09:45:47;27.67;;;25.08;;
48588;SDS011;34369;51.174;6.738;2023-04-15T09:48:21;26.02;;;24.25;;
48588;SDS011;34369;51.174;6.738;2023-04-15T09:50:56;26.23;;;24.42;;
48588;SDS011;34369;51.174;6.738;2023-04-15T09:53:33;26.53;;;24.73;;
48588;SDS011;34369;51.174;6.738;2023-04-15T09:56:07;26.85;;;25.05;;
48588;SDS011;34369;51.174;6.738;2023-04-15T09:58:40;26.17;;;24.38;;
48588;SDS011;34369;51.174;6.738;2023-04-15T10:01:12;26.55;;;24.65;;
48588;SDS011;34369;51.174;6.738;2023-04-15T10:03:44;27.05;;;25.23;;
48588;SDS011;34369;51.174;6.738;2023-04-15T10:06:17;26.92;;;25.02;;
48588;SDS011;34369;51.174;6.738;2023-04-15T10:08:52;27.60;;;25.70;;
48588;SDS011;34369;51.174;6.738;2023-04-15T10:11:27;26.55;;;24.75;;
48588;SDS011;34369;51.174;6.738;2023-04-15T10:14:13;27.50;;;25.50;;
48588;SDS011;34369;51.174;6.738;2023-04-15T10:17:50;27.45;;;25.55;;
48588;SDS011;34369;51.174;6.738;2023-04-15T10:23:29;27.23;;;25.25;;
48588;SDS011;34369;51.174;6.738;2023-04-15T10:29:53;27.30;;;25.40;;
48588;SDS011;34369;51.174;6.738;2023-04-15T10:33:02;27.30;;;25.40;;
48588;SDS011;34369;51.174;6.738;2023-04-15T10:35:35;28.60;;;26.70;;
48588;SDS011;34369;51.174;6.738;2023-04-15T10:41:32;27.55;;;25.75;;
48588;SDS011;34369;51.174;6.738;2023-04-15T10:45:10;27.73;;;25.83;;
48588;SDS011;34369;51.174;6.738;2023-04-15T10:48:00;27.88;;;25.98;;
48588;SDS011;34369;51.174;6.738;2023-04-15T10:50:33;27.50;;;25.70;;
48588;SDS011;34369;51.174;6.738;2023-04-15T10:53:09;28.00;;;26.10;;
48588;SDS011;34369;51.174;6.738;2023-04-15T10:55:43;27.45;;;25.65;;
48588;SDS011;34369;51.174;6.738;2023-04-15T10:58:17;27.77;;;25.98;;
48588;SDS011;34369;51.174;6.738;2023-04-15T11:00:54;26.85;;;25.05;;
48588;SDS011;34369;51.174;6.738;2023-04-15T11:03:37;26.67;;;24.88;;
48588;SDS011;34369;51.174;6.738;2023-04-15T11:06:11;26.17;;;24.38;;
48588;SDS011;34369;51.174;6.738;2023-04-15T11:08:54;26.52;;;24.63;;
48588;SDS011;34369;51.174;6.738;2023-04-15T11:14:40;26.20;;;24.40;;
48588;SDS011;34369;51.174;6.738;2023-04-15T11:17:13;26.38;;;24.58;;
48588;SDS011;34369;51.174;6.738;2023-04-15T11:19:58;26.67;;;24.88;;
48588;SDS011;34369;51.174;6.738;2023-04-15T11:22:33;27.05;;;25.25;;
48588;SDS011;34369;51.174;6.738;2023-04-15T11:25:06;27.45;;;25.55;;
48588;SDS011;34369;51.174;6.738;2023-04-15T11:27:39;27.15;;;25.35;;
48588;SDS011;34369;51.174;6.738;2023-04-15T11:30:18;27.05;;;25.13;;
48588;SDS011;34369;51.174;6.738;2023-04-15T11:32:53;27.83;;;25.92;;
48588;SDS011;34369;51.174;6.738;2023-04-15T11:35:30;27.15;;;25.35;;
48588;SDS011;34369;51.174;6.738;2023-04-15T11:38:07;28.08;;;26.20;;
48588;SDS011;34369;51.174;6.738;2023-04-15T11:40:43;27.98;;;26.08;;
48588;SDS011;34369;51.174;6.738;2023-04-15T11:43:18;29.08;;;27.00;;
48588;SDS011;34369;51.174;6.738;2023-04-15T11:45:54;29.90;;;27.77;;
48588;SDS011;34369;51.174;6.738;2023-04-15T11:48:30;29.58;;;27.58;;
48588;SDS011;34369;51.174;6.738;2023-04-15T11:51:05;31.00;;;28.88;;
48588;SDS011;34369;51.174;6.738;2023-04-15T11:53:41;31.42;;;29.23;;
48588;SDS011;34369;51.174;6.738;2023-04-15T11:56:16;31.20;;;28.92;;
48588;SDS011;34369;51.174;6.738;2023-04-15T11:58:51;30.45;;;28.35;;
48588;SDS011;34369;51.174;6.738;2023-04-15T12:01:34;30.80;;;28.50;;
48588;SDS011;34369;51.174;6.738;2023-04-15T12:04:24;30.05;;;27.90;;
48588;SDS011;34369;51.174;6.738;2023-04-15T12:07:04;29.50;;;27.45;;
48588;SDS011;34369;51.174;6.738;2023-04-15T12:09:36;30.42;;;28.33;;
48588;SDS011;34369;51.174;6.738;2023-04-15T12:12:08;30.23;;;28.15;;
48588;SDS011;34369;51.174;6.738;2023-04-15T12:14:41;29.52;;;27.33;;
48588;SDS011;34369;51.174;6.738;2023-04-15T12:17:15;30.90;;;28.60;;
48588;SDS011;34369;51.174;6.738;2023-04-15T12:19:54;30.67;;;28.58;;
48588;SDS011;34369;51.174;6.738;2023-04-15T12:22:27;30.15;;;28.10;;
48588;SDS011;34369;51.174;6.738;2023-04-15T12:24:59;31.25;;;29.13;;
48588;SDS011;34369;51.174;6.738;2023-04-15T12:27:32;30.65;;;28.63;;
48588;SDS011;34369;51.174;6.738;2023-04-15T12:30:05;30.27;;;28.27;;
48588;SDS011;34369;51.174;6.738;2023-04-15T12:32:39;31.02;;;28.83;;
48588;SDS011;34369;51.174;6.738;2023-04-15T12:35:11;30.17;;;28.17;;
48588;SDS011;34369;51.174;6.738;2023-04-15T12:37:44;30.55;;;28.45;;
48588;SDS011;34369;51.174;6.738;2023-04-15T12:40:15;31.00;;;28.90;;
48588;SDS011;34369;51.174;6.738;2023-04-15T12:42:48;30.20;;;28.20;;
48588;SDS011;34369;51.174;6.738;2023-04-15T12:45:20;30.38;;;28.38;;
48588;SDS011;34369;51.174;6.738;2023-04-15T12:47:53;30.35;;;28.25;;
48588;SDS011;34369;51.174;6.738;2023-04-15T12:50:25;31.05;;;29.02;;
48588;SDS011;34369;51.174;6.738;2023-04-15T12:52:56;31.58;;;29.55;;
48588;SDS011;34369;51.174;6.738;2023-04-15T12:55:28;31.80;;;29.80;;
48588;SDS011;34369;51.174;6.738;2023-04-15T12:58:00;30.52;;;28.42;;
48588;SDS011;34369;51.174;6.738;2023-04-15T13:00:33;31.30;;;29.30;;
48588;SDS011;34369;51.174;6.738;2023-04-15T13:03:06;29.67;;;27.77;;
48588;SDS011;34369;51.174;6.738;2023-04-15T13:05:38;30.88;;;28.45;;
48588;SDS011;34369;51.174;6.738;2023-04-15T13:08:10;28.98;;;26.98;;
48588;SDS011;34369;51.174;6.738;2023-04-15T13:10:42;31.98;;;29.88;;
48588;SDS011;34369;51.174;6.738;2023-04-15T13:13:14;30.40;;;28.40;;
48588;SDS011;34369;51.174;6.738;2023-04-15T13:15:46;30.15;;;28.15;;
48588;SDS011;34369;51.174;6.738;2023-04-15T13:18:19;30.73;;;28.63;;
48588;SDS011;34369;51.174;6.738;2023-04-15T13:20:53;29.77;;;27.75;;
48588;SDS011;34369;51.174;6.738;2023-04-15T13:23:25;31.40;;;29.40;;
48588;SDS011;34369;51.174;6.738;2023-04-15T13:25:57;29.70;;;27.80;;
48588;SDS011;34369;51.174;6.738;2023-04-15T13:28:29;30.33;;;28.38;;
48588;SDS011;34369;51.174;6.738;2023-04-15T13:31:01;31.15;;;29.15;;
48588;SDS011;34369;51.174;6.738;2023-04-15T13:33:35;30.63;;;28.63;;
48588;SDS011;34369;51.174;6.738;2023-04-15T13:36:07;30.48;;;28.58;;
48588;SDS011;34369;51.174;6.738;2023-04-15T13:38:39;30.88;;;28.88;;
48588;SDS011;34369;51.174;6.738;2023-04-15T13:41:11;32.15;;;30.05;;
48588;SDS011;34369;51.174;6.738;2023-04-15T13:43:43;30.80;;;28.80;;
48588;SDS011;34369;51.174;6.738;2023-04-15T13:46:15;30.80;;;28.85;;
48588;SDS011;34369;51.174;6.738;2023-04-15T13:48:48;30.67;;;28.58;;
48588;SDS011;34369;51.174;6.738;2023-04-15T13:51:20;31.55;;;29.55;;
48588;SDS011;34369;51.174;6.738;2023-04-15T13:53:52;30.92;;;28.92;;
48588;SDS011;34369;51.174;6.738;2023-04-15T13:56:24;31.77;;;29.48;;
48588;SDS011;34369;51.174;6.738;2023-04-15T13:58:56;31.13;;;29.00;;
48588;SDS011;34369;51.174;6.738;2023-04-15T14:01:31;31.70;;;29.60;;
48588;SDS011;34369;51.174;6.738;2023-04-15T14:04:04;32.22;;;30.02;;
48588;SDS011;34369;51.174;6.738;2023-04-15T14:06:36;31.38;;;29.33;;
48588;SDS011;34369;51.174;6.738;2023-04-15T14:09:08;31.55;;;29.55;;
48588;SDS011;34369;51.174;6.738;2023-04-15T14:11:41;31.83;;;29.63;;
48588;SDS011;34369;51.174;6.738;2023-04-15T14:14:12;31.92;;;29.83;;
48588;SDS011;34369;51.174;6.738;2023-04-15T14:16:44;31.45;;;29.25;;
48588;SDS011;34369;51.174;6.738;2023-04-15T14:19:19;30.77;;;28.75;;
48588;SDS011;34369;51.174;6.738;2023-04-15T14:21:51;29.75;;;27.85;;
48588;SDS011;34369;51.174;6.738;2023-04-15T14:24:23;30.85;;;28.85;;
48588;SDS011;34369;51.174;6.738;2023-04-15T14:26:56;29.10;;;27.20;;
48588;SDS011;34369;51.174;6.738;2023-04-15T14:29:29;30.90;;;28.98;;
48588;SDS011;34369;51.174;6.738;2023-04-15T14:32:01;29.58;;;27.67;;
48588;SDS011;34369;51.174;6.738;2023-04-15T14:34:34;30.83;;;28.83;;
48588;SDS011;34369;51.174;6.738;2023-04-15T14:37:06;32.00;;;29.80;;
48588;SDS011;34369;51.174;6.738;2023-04-15T14:39:38;29.90;;;28.00;;
48588;SDS011;34369;51.174;6.738;2023-04-15T14:42:10;30.65;;;28.38;;
48588;SDS011;34369;51.174;6.738;2023-04-15T14:44:42;31.02;;;29.02;;
48588;SDS011;34369;51.174;6.738;2023-04-15T14:47:14;31.23;;;29.23;;
48588;SDS011;34369;51.174;6.738;2023-04-15T14:49:47;31.20;;;29.10;;
48588;SDS011;34369;51.174;6.738;2023-04-15T14:52:19;32.10;;;30.00;;
48588;SDS011;34369;51.174;6.738;2023-04-15T14:54:54;31.40;;;29.40;;
48588;SDS011;34369;51.174;6.738;2023-04-15T14:57:30;30.08;;;28.00;;
48588;SDS011;34369;51.174;6.738;2023-04-15T15:00:03;31.27;;;29.27;;
48588;SDS011;34369;51.174;6.738;2023-04-15T15:02:37;31.40;;;29.40;;
48588;SDS011;34369;51.174;6.738;2023-04-15T15:05:14;30.70;;;28.50;;
48588;SDS011;34369;51.174;6.738;2023-04-15T15:07:46;30.15;;;28.23;;
48588;SDS011;34369;51.174;6.738;2023-04-15T15:10:17;30.80;;;28.80;;
48588;SDS011;34369;51.174;6.738;2023-04-15T15:12:51;30.42;;;28.42;;
48588;SDS011;34369;51.174;6.738;2023-04-15T15:15:24;29.33;;;27.42;;
48588;SDS011;34369;51.174;6.738;2023-04-15T15:17:56;30.38;;;28.38;;
48588;SDS011;34369;51.174;6.738;2023-04-15T15:20:29;30.65;;;28.65;;
48588;SDS011;34369;51.174;6.738;2023-04-15T15:23:02;30.23;;;28.13;;
48588;SDS011;34369;51.174;6.738;2023-04-15T15:25:33;30.52;;;28.42;;
48588;SDS011;34369;51.174;6.738;2023-04-15T15:28:05;31.35;;;29.10;;
48588;SDS011;34369;51.174;6.738;2023-04-15T15:30:38;30.20;;;28.20;;
48588;SDS011;34369;51.174;6.738;2023-04-15T15:33:10;31.83;;;29.73;;
48588;SDS011;34369;51.174;6.738;2023-04-15T15:35:43;31.43;;;29.33;;
48588;SDS011;34369;51.174;6.738;2023-04-15T15:38:15;31.60;;;29.50;;
48588;SDS011;34369;51.174;6.738;2023-04-15T15:40:47;31.73;;;29.73;;
48588;SDS011;34369;51.174;6.738;2023-04-15T15:43:19;31.48;;;29.48;;
48588;SDS011;34369;51.174;6.738;2023-04-15T15:45:51;31.45;;;29.45;;
48588;SDS011;34369;51.174;6.738;2023-04-15T15:48:24;29.95;;;28.05;;
48588;SDS011;34369;51.174;6.738;2023-04-15T15:50:57;30.27;;;28.27;;
48588;SDS011;34369;51.174;6.738;2023-04-15T15:53:29;31.45;;;29.02;;
48588;SDS011;34369;51.174;6.738;2023-04-15T15:56:01;30.75;;;28.75;;
48588;SDS011;34369;51.174;6.738;2023-04-15T15:58:35;30.92;;;28.92;;
48588;SDS011;34369;51.174;6.738;2023-04-15T16:01:06;30.80;;;28.80;;
48588;SDS011;34369;51.174;6.738;2023-04-15T16:03:39;31.47;;;29.47;;
48588;SDS011;34369;51.174;6.738;2023-04-15T16:06:12;30.97;;;28.97;;
48588;SDS011;34369;51.174;6.738;2023-04-15T16:08:45;29.85;;;27.85;;
48588;SDS011;34369;51.174;6.738;2023-04-15T16:11:17;30.77;;;28.77;;
48588;SDS011;34369;51.174;6.738;2023-04-15T16:13:49;30.25;;;28.35;;
48588;SDS011;34369;51.174;6.738;2023-04-15T16:16:21;31.47;;;29.43;;
48588;SDS011;34369;51.174;6.738;2023-04-15T16:18:54;32.42;;;30.42;;
48588;SDS011;34369;51.174;6.738;2023-04-15T16:21:28;30.90;;;28.90;;
48588;SDS011;34369;51.174;6.738;2023-04-15T16:24:00;31.00;;;28.90;;
48588;SDS011;34369;51.174;6.738;2023-04-15T16:26:32;31.03;;;29.13;;
48588;SDS011;34369;51.174;6.738;2023-04-15T16:29:05;30.80;;;28.80;;
48588;SDS011;34369;51.174;6.738;2023-04-15T16:31:37;30.17;;;28.17;;
48588;SDS011;34369;51.174;6.738;2023-04-15T16:34:14;30.42;;;28.27;;
48588;SDS011;34369;51.174;6.738;2023-04-15T16:36:49;30.23;;;28.33;;
48588;SDS011;34369;51.174;6.738;2023-04-15T16:39:28;31.00;;;29.00;;
48588;SDS011;34369;51.174;6.738;2023-04-15T16:42:04;31.90;;;29.90;;
48588;SDS011;34369;51.174;6.738;2023-04-15T16:44:41;31.35;;;29.35;;
48588;SDS011;34369;51.174;6.738;2023-04-15T16:47:14;31.50;;;29.50;;
48588;SDS011;34369;51.174;6.738;2023-04-15T16:49:46;31.33;;;29.23;;
48588;SDS011;34369;51.174;6.738;2023-04-15T16:52:21;31.10;;;29.10;;
48588;SDS011;34369;51.174;6.738;2023-04-15T16:54:58;30.57;;;28.67;;
48588;SDS011;34369;51.174;6.738;2023-04-15T16:57:33;30.73;;;28.83;;
48588;SDS011;34369;51.174;6.738;2023-04-15T17:00:06;31.55;;;29.55;;
48588;SDS011;34369;51.174;6.738;2023-04-15T17:02:40;32.17;;;30.03;;
48588;SDS011;34369;51.174;6.738;2023-04-15T17:05:12;31.27;;;29.27;;
48588;SDS011;34369;51.174;6.738;2023-04-15T17:07:45;31.57;;;29.50;;
48588;SDS011;34369;51.174;6.738;2023-04-15T17:10:18;31.23;;;29.23;;
48588;SDS011;34369;51.174;6.738;2023-04-15T17:12:50;32.50;;;30.50;;
48588;SDS011;34369;51.174;6.738;2023-04-15T17:15:23;31.55;;;29.55;;
48588;SDS011;34369;51.174;6.738;2023-04-15T17:17:59;32.00;;;30.00;;
48588;SDS011;34369;51.174;6.738;2023-04-15T17:20:41;32.07;;;29.77;;
48588;SDS011;34369;51.174;6.738;2023-04-15T17:23:14;30.60;;;28.70;;
48588;SDS011;34369;51.174;6.738;2023-04-15T17:25:46;31.30;;;29.30;;
48588;SDS011;34369;51.174;6.738;2023-04-15T17:28:20;33.10;;;31.00;;
48588;SDS011;34369;51.174;6.738;2023-04-15T17:30:53;31.47;;;29.47;;
48588;SDS011;34369;51.174;6.738;2023-04-15T17:33:25;31.80;;;29.80;;
48588;SDS011;34369;51.174;6.738;2023-04-15T17:35:57;33.30;;;30.93;;
48588;SDS011;34369;51.174;6.738;2023-04-15T17:38:34;33.57;;;31.50;;
48588;SDS011;34369;51.174;6.738;2023-04-15T17:41:06;31.27;;;29.27;;
48588;SDS011;34369;51.174;6.738;2023-04-15T17:43:38;31.63;;;29.63;;
48588;SDS011;34369;51.174;6.738;2023-04-15T17:46:10;32.30;;;30.10;;
48588;SDS011;34369;51.174;6.738;2023-04-15T17:48:42;31.47;;;29.33;;
48588;SDS011;34369;51.174;6.738;2023-04-15T17:51:14;31.90;;;29.73;;
48588;SDS011;34369;51.174;6.738;2023-04-15T17:53:49;31.53;;;29.43;;
48588;SDS011;34369;51.174;6.738;2023-04-15T17:56:21;32.33;;;30.25;;
48588;SDS011;34369;51.174;6.738;2023-04-15T17:58:55;31.33;;;29.17;;
48588;SDS011;34369;51.174;6.738;2023-04-15T18:01:29;31.93;;;29.73;;
48588;SDS011;34369;51.174;6.738;2023-04-15T18:04:01;34.17;;;31.77;;
48588;SDS011;34369;51.174;6.738;2023-04-15T18:06:33;32.47;;;30.37;;
48588;SDS011;34369;51.174;6.738;2023-04-15T18:09:07;32.17;;;30.17;;
48588;SDS011;34369;51.174;6.738;2023-04-15T18:11:45;32.23;;;30.03;;
48588;SDS011;34369;51.174;6.738;2023-04-15T18:14:48;32.65;;;30.50;;
48588;SDS011;34369;51.174;6.738;2023-04-15T18:17:21;32.37;;;30.37;;
48588;SDS011;34369;51.174;6.738;2023-04-15T18:19:54;31.47;;;29.37;;
48588;SDS011;34369;51.174;6.738;2023-04-15T18:22:27;32.17;;;30.07;;
48588;SDS011;34369;51.174;6.738;2023-04-15T18:25:01;32.80;;;30.70;;
48588;SDS011;34369;51.174;6.738;2023-04-15T18:27:34;31.47;;;29.37;;
48588;SDS011;34369;51.174;6.738;2023-04-15T18:30:09;33.50;;;31.40;;
48588;SDS011;34369;51.174;6.738;2023-04-15T18:32:42;33.50;;;31.30;;
48588;SDS011;34369;51.174;6.738;2023-04-15T18:35:14;32.80;;;30.53;;
48588;SDS011;34369;51.174;6.738;2023-04-15T18:37:47;32.70;;;30.50;;
48588;SDS011;34369;51.174;6.738;2023-04-15T18:40:20;33.03;;;30.87;;
48588;SDS011;34369;51.174;6.738;2023-04-15T18:42:52;33.67;;;31.37;;
48588;SDS011;34369;51.174;6.738;2023-04-15T18:45:25;32.67;;;30.57;;
48588;SDS011;34369;51.174;6.738;2023-04-15T18:47:57;33.33;;;31.23;;
48588;SDS011;34369;51.174;6.738;2023-04-15T18:50:29;34.80;;;32.60;;
48588;SDS011;34369;51.174;6.738;2023-04-15T18:53:02;33.50;;;31.30;;
48588;SDS011;34369;51.174;6.738;2023-04-15T18:55:39;31.70;;;29.60;;
48588;SDS011;34369;51.174;6.738;2023-04-15T18:58:20;33.28;;;30.98;;
48588;SDS011;34369;51.174;6.738;2023-04-15T19:00:52;34.10;;;31.80;;
48588;SDS011;34369;51.174;6.738;2023-04-15T19:03:24;32.50;;;30.40;;
48588;SDS011;34369;51.174;6.738;2023-04-15T19:05:59;35.03;;;32.57;;
48588;SDS011;34369;51.174;6.738;2023-04-15T19:08:31;33.33;;;31.23;;
48588;SDS011;34369;51.174;6.738;2023-04-15T19:11:05;33.57;;;31.23;;
48588;SDS011;34369;51.174;6.738;2023-04-15T19:13:39;33.67;;;31.50;;
48588;SDS011;34369;51.174;6.738;2023-04-15T19:16:11;34.43;;;32.20;;
48588;SDS011;34369;51.174;6.738;2023-04-15T19:18:43;32.50;;;30.40;;
48588;SDS011;34369;51.174;6.738;2023-04-15T19:21:15;34.60;;;32.30;;
48588;SDS011;34369;51.174;6.738;2023-04-15T19:23:47;35.13;;;32.70;;
48588;SDS011;34369;51.174;6.738;2023-04-15T19:26:20;40.73;;;37.93;;
48588;SDS011;34369;51.174;6.738;2023-04-15T19:28:53;46.03;;;42.93;;
48588;SDS011;34369;51.174;6.738;2023-04-15T19:31:27;37.90;;;35.23;;
48588;SDS011;34369;51.174;6.738;2023-04-15T19:34:00;39.10;;;36.30;;
48588;SDS011;34369;51.174;6.738;2023-04-15T19:36:32;41.17;;;38.27;;
48588;SDS011;34369;51.174;6.738;2023-04-15T19:39:04;42.80;;;39.80;;
48588;SDS011;34369;51.174;6.738;2023-04-15T19:41:38;43.17;;;40.23;;
48588;SDS011;34369;51.174;6.738;2023-04-15T19:44:13;38.77;;;35.97;;
48588;SDS011;34369;51.174;6.738;2023-04-15T19:46:46;38.73;;;35.73;;
48588;SDS011;34369;51.174;6.738;2023-04-15T19:49:20;34.97;;;32.57;;
48588;SDS011;34369;51.174;6.738;2023-04-15T19:51:53;38.07;;;35.33;;
48588;SDS011;34369;51.174;6.738;2023-04-15T19:54:25;36.50;;;33.97;;
48588;SDS011;34369;51.174;6.738;2023-04-15T19:56:59;33.53;;;31.23;;
48588;SDS011;34369;51.174;6.738;2023-04-15T19:59:32;33.70;;;31.30;;
48588;SDS011;34369;51.174;6.738;2023-04-15T20:02:05;34.70;;;32.10;;
48588;SDS011;34369;51.174;6.738;2023-04-15T20:04:38;32.93;;;30.53;;
48588;SDS011;34369;51.174;6.738;2023-04-15T20:07:14;35.75;;;33.17;;
48588;SDS011;34369;51.174;6.738;2023-04-15T20:09:46;36.93;;;34.33;;
48588;SDS011;34369;51.174;6.738;2023-04-15T20:12:22;36.13;;;33.53;;
48588;SDS011;34369;51.174;6.738;2023-04-15T20:14:55;35.03;;;32.43;;
48588;SDS011;34369;51.174;6.738;2023-04-15T20:17:30;34.07;;;31.60;;
48588;SDS011;34369;51.174;6.738;2023-04-15T20:20:03;36.22;;;33.63;;
48588;SDS011;34369;51.174;6.738;2023-04-15T20:22:37;36.77;;;34.13;;
48588;SDS011;34369;51.174;6.738;2023-04-15T20:25:10;36.47;;;33.80;;
48588;SDS011;34369;51.174;6.738;2023-04-15T20:27:43;34.50;;;31.93;;
48588;SDS011;34369;51.174;6.738;2023-04-15T20:30:15;36.20;;;33.27;;
48588;SDS011;34369;51.174;6.738;2023-04-15T20:32:48;33.83;;;31.43;;